Погода Кабошина неделю

Витебская область, Белоруссия

23 - 29 мая
  • 23мая
    Сегодня
    +13°
    +24°
    Облачно с прояснениями
    ВремяПогодаТемператураВлажностьДавлениеВетер, м/сВероятность осадков
    00:00Практически безоблачно+14°C92 %753 мм2.5 м/с2 %
    03:00Ясно и безоблачно+14°C95 %754 мм3.4 м/с2 %
    06:00Ясно и безоблачно+14°C94 %754 мм3.8 м/с2 %
    09:00Ясно и безоблачно+18°C82 %755 мм4.4 м/с2 %
    12:00Практически безоблачно+22°C67 %755 мм5.3 м/с4 %
    15:00Облачно с прояснениями+23°C58 %755 мм5.5 м/с20 %
    18:00Небольшая облачность+21°C78 %755 мм3.9 м/с40 %
    21:00Облачно с прояснениями+19°C72 %756 мм3.7 м/с2 %
  • 24мая
    Пятница
    +12°
    +24°
    Ясно и безоблачно
    ВремяПогодаТемператураВлажностьДавлениеВетер, м/сВероятность осадков
    00:00Облачно с прояснениями+15°C78 %757 мм3.5 м/с1 %
    03:00Облачно с прояснениями+14°C71 %757 мм4.6 м/с2 %
    06:00Облачно с прояснениями+13°C70 %758 мм4.4 м/с2 %
    09:00Небольшая облачность+17°C64 %759 мм4.5 м/с1 %
    12:00Облачно с прояснениями+21°C57 %759 мм4.4 м/с2 %
    15:00Ясно и безоблачно+23°C51 %758 мм4.8 м/с2 %
    18:00Ясно и безоблачно+23°C52 %757 мм4.5 м/с5 %
    21:00Практически безоблачно+19°C67 %757 мм2.7 м/с2 %
  • 25мая
    Суббота
    +12°
    +24°
    Практически безоблачно
    ВремяПогодаТемператураВлажностьДавлениеВетер, м/сВероятность осадков
    00:00Ясно и безоблачно+15°C69 %758 мм3.9 м/с2 %
    03:00Ясно и безоблачно+13°C76 %758 мм3.0 м/с2 %
    06:00Облачно с прояснениями+12°C81 %757 мм3.2 м/с2 %
    09:00Облачно с прояснениями+18°C69 %757 мм3.2 м/с3 %
    12:00Облачно с прояснениями+22°C57 %757 мм3.2 м/с5 %
    15:00Практически безоблачно+24°C47 %756 мм3.4 м/с15 %
    18:00Облачно с прояснениями+24°C49 %756 мм2.3 м/с24 %
    21:00Ясно и безоблачно+19°C76 %755 мм2.2 м/с12 %
  • 26мая
    Воскресенье
    +11°
    +25°
    Ясно и безоблачно
    ВремяПогодаТемператураВлажностьДавлениеВетер, м/сВероятность осадков
    00:00Ясно и безоблачно+15°C82 %755 мм2.0 м/с6 %
    03:00Ясно и безоблачно+13°C86 %755 мм2.1 м/с4 %
    06:00Практически безоблачно+13°C77 %755 мм2.1 м/с9 %
    09:00Ясно и безоблачно+18°C64 %756 мм1.5 м/с12 %
    12:00Ясно и безоблачно+23°C44 %756 мм3.0 м/с8 %
    15:00Ясно и безоблачно+24°C42 %756 мм3.2 м/с12 %
    18:00Ясно и безоблачно+24°C43 %755 мм2.9 м/с25 %
    21:00Ясно и безоблачно+19°C64 %756 мм2.1 м/с11 %
  • 27мая
    Понедельник
    +12°
    +25°
    Ясно и безоблачно
    ВремяПогодаТемператураВлажностьДавлениеВетер, м/сВероятность осадков
    00:00Небольшая облачность+14°C73 %756 мм2.3 м/с2 %
    03:00Ясно и безоблачно+12°C85 %756 мм2.7 м/с2 %
    06:00Ясно и безоблачно+12°C94 %757 мм1.4 м/с2 %
    09:00Практически безоблачно+19°C65 %757 мм1.4 м/с2 %
    12:00Небольшая облачность+24°C40 %757 мм2.9 м/с12 %
    15:00Ясно и безоблачно+25°C38 %757 мм2.9 м/с25 %
    18:00Ясно и безоблачно+24°C40 %756 мм2.5 м/с27 %
    21:00Ясно и безоблачно+22°C53 %756 мм1.6 м/с8 %
Мы используем cookies
Соглашаюсь